ASL123 ULLI-LYBE
Flight info
| Callsign | ASL123 |
|---|---|
| Flight time | N/A |
| Altitude | 36000 |
| Route | TURAL1B TURAL L870 RESMO DCT ERIVA DCT BOKSU M985 EVINA/N0447F370 DCT KELEL DCT PARAK DCT TISAK |
| Aircraft | A320/M-SDE3FGHIRWY/LB1 |
Departure
| Time | 2026-05-05 17:42 |
|---|---|
| Airport | Pulkovo Airport (ULLI) |
Arrival
| Time | N/A |
|---|---|
| Airport | Belgrade Nikola Tesla Airport (LYBE) |
| Time | Latitude | Longitude | Altitude | Speed | Heading |
|---|---|---|---|---|---|
| 2026-05-05 17:17 | 59.80175 | 30.26917 | 83 ft | 0 kts | 94° |
| 2026-05-05 17:31 | 59.80176 | 30.26912 | 83 ft | 2 kts | 95° |
| 2026-05-05 17:31 | 59.80177 | 30.26884 | 83 ft | 2 kts | 95° |
| 2026-05-05 17:32 | 59.80179 | 30.26855 | 83 ft | 2 kts | 95° |
| 2026-05-05 17:32 | 59.80180 | 30.26826 | 83 ft | 1 kts | 95° |
| 2026-05-05 17:32 | 59.80180 | 30.26800 | 83 ft | 2 kts | 78° |
| 2026-05-05 17:32 | 59.80176 | 30.26771 | 83 ft | 2 kts | 62° |
| 2026-05-05 17:33 | 59.80167 | 30.26746 | 83 ft | 2 kts | 43° |
| 2026-05-05 17:33 | 59.80155 | 30.26729 | 84 ft | 2 kts | 25° |
| 2026-05-05 17:33 | 59.80147 | 30.26723 | 84 ft | 1 kts | 14° |
| 2026-05-05 17:33 | 59.80143 | 30.26721 | 84 ft | 0 kts | 15° |
| 2026-05-05 17:36 | 59.80149 | 30.26724 | 84 ft | 3 kts | 15° |
| 2026-05-05 17:36 | 59.80193 | 30.26747 | 83 ft | 7 kts | 13° |
| 2026-05-05 17:36 | 59.80250 | 30.26779 | 82 ft | 9 kts | 18° |
| 2026-05-05 17:37 | 59.80324 | 30.26827 | 80 ft | 12 kts | 17° |
| 2026-05-05 17:37 | 59.80387 | 30.26870 | 79 ft | 6 kts | 44° |
| 2026-05-05 17:37 | 59.80383 | 30.26970 | 79 ft | 8 kts | 108° |
| 2026-05-05 17:37 | 59.80360 | 30.27116 | 77 ft | 13 kts | 106° |
| 2026-05-05 17:38 | 59.80330 | 30.27323 | 77 ft | 17 kts | 106° |
| 2026-05-05 17:38 | 59.80294 | 30.27562 | 78 ft | 19 kts | 106° |
| 2026-05-05 17:38 | 59.80254 | 30.27830 | 75 ft | 22 kts | 106° |
| 2026-05-05 17:38 | 59.80210 | 30.28124 | 73 ft | 22 kts | 107° |
| 2026-05-05 17:39 | 59.80166 | 30.28421 | 74 ft | 22 kts | 105° |
| 2026-05-05 17:39 | 59.80123 | 30.28711 | 74 ft | 21 kts | 107° |
| 2026-05-05 17:39 | 59.80079 | 30.29001 | 72 ft | 22 kts | 106° |
| 2026-05-05 17:39 | 59.80036 | 30.29294 | 73 ft | 21 kts | 106° |
| 2026-05-05 17:40 | 59.79994 | 30.29573 | 74 ft | 20 kts | 106° |
| 2026-05-05 17:40 | 59.79956 | 30.29829 | 74 ft | 15 kts | 105° |
| 2026-05-05 17:40 | 59.79946 | 30.30038 | 75 ft | 15 kts | 59° |
| 2026-05-05 17:40 | 59.80023 | 30.30203 | 74 ft | 16 kts | 46° |
| 2026-05-05 17:41 | 59.80101 | 30.30324 | 74 ft | 8 kts | 352° |
| 2026-05-05 17:41 | 59.80128 | 30.30223 | 74 ft | 9 kts | 284° |
| 2026-05-05 17:41 | 59.80148 | 30.30091 | 74 ft | 13 kts | 286° |
| 2026-05-05 17:41 | 59.80243 | 30.29454 | 70 ft | 84 kts | 286° |
| 2026-05-05 17:42 | 59.80462 | 30.27950 | 73 ft | 142 kts | 286° |
| 2026-05-05 17:42 | 59.80754 | 30.26021 | 633 ft | 143 kts | 286° |
| 2026-05-05 17:42 | 59.81014 | 30.24219 | 1404 ft | 134 kts | 286° |
| 2026-05-05 17:42 | 59.81253 | 30.22480 | 2051 ft | 132 kts | 286° |
| 2026-05-05 17:43 | 59.81522 | 30.20686 | 2460 ft | 143 kts | 286° |
| 2026-05-05 17:43 | 59.81805 | 30.18700 | 2875 ft | 158 kts | 287° |
| 2026-05-05 17:43 | 59.82135 | 30.16537 | 3284 ft | 174 kts | 286° |
| 2026-05-05 17:43 | 59.82502 | 30.14109 | 3708 ft | 190 kts | 285° |
| 2026-05-05 17:44 | 59.82893 | 30.11500 | 4137 ft | 208 kts | 285° |
| 2026-05-05 17:44 | 59.83318 | 30.08625 | 4528 ft | 229 kts | 284° |
| 2026-05-05 17:44 | 59.83784 | 30.05452 | 5093 ft | 244 kts | 283° |
| 2026-05-05 17:44 | 59.84258 | 30.02232 | 5950 ft | 248 kts | 282° |
| 2026-05-05 17:45 | 59.84606 | 29.98935 | 6865 ft | 245 kts | 268° |
| 2026-05-05 17:45 | 59.84356 | 29.95677 | 7772 ft | 241 kts | 250° |
| 2026-05-05 17:45 | 59.83694 | 29.92667 | 8742 ft | 241 kts | 246° |
| 2026-05-05 17:45 | 59.83313 | 29.91030 | 9186 ft | 242 kts | 246° |
| 2026-05-05 17:46 | 59.82614 | 29.88033 | 9989 ft | 243 kts | 246° |
| 2026-05-05 17:46 | 59.81885 | 29.84905 | 10547 ft | 255 kts | 246° |
| 2026-05-05 17:46 | 59.81114 | 29.81594 | 10926 ft | 273 kts | 246° |
| 2026-05-05 17:46 | 59.80300 | 29.78111 | 11273 ft | 290 kts | 246° |
| 2026-05-05 17:47 | 59.79424 | 29.74363 | 11633 ft | 305 kts | 246° |
| 2026-05-05 17:47 | 59.78530 | 29.70548 | 12257 ft | 310 kts | 246° |
| 2026-05-05 17:47 | 59.77630 | 29.66718 | 12993 ft | 312 kts | 246° |
| 2026-05-05 17:47 | 59.76713 | 29.62819 | 13678 ft | 314 kts | 246° |
| 2026-05-05 17:48 | 59.75791 | 29.58907 | 14341 ft | 317 kts | 246° |
| 2026-05-05 17:48 | 59.74862 | 29.54977 | 15002 ft | 319 kts | 246° |
| 2026-05-05 17:48 | 59.73916 | 29.50981 | 15567 ft | 324 kts | 246° |
| 2026-05-05 17:48 | 59.72942 | 29.46874 | 15965 ft | 333 kts | 246° |
| 2026-05-05 17:49 | 59.71966 | 29.42769 | 16522 ft | 336 kts | 246° |
| 2026-05-05 17:49 | 59.70970 | 29.38584 | 17110 ft | 338 kts | 246° |
| 2026-05-05 17:49 | 59.69971 | 29.34396 | 17660 ft | 340 kts | 245° |
| 2026-05-05 17:49 | 59.68951 | 29.30118 | 18244 ft | 342 kts | 245° |
| 2026-05-05 17:50 | 59.67939 | 29.25881 | 18769 ft | 345 kts | 245° |
| 2026-05-05 17:50 | 59.66918 | 29.21616 | 19281 ft | 347 kts | 245° |
| 2026-05-05 17:50 | 59.65877 | 29.17291 | 19764 ft | 351 kts | 246° |
| 2026-05-05 17:50 | 59.64826 | 29.12928 | 20150 ft | 356 kts | 246° |
| 2026-05-05 17:51 | 59.63752 | 29.08480 | 20632 ft | 359 kts | 246° |
| 2026-05-05 17:51 | 59.62726 | 29.04043 | 21129 ft | 360 kts | 248° |
| 2026-05-05 17:51 | 59.61800 | 28.99456 | 21613 ft | 362 kts | 250° |
| 2026-05-05 17:51 | 59.60968 | 28.94806 | 22091 ft | 363 kts | 251° |
| 2026-05-05 17:52 | 59.60130 | 28.90111 | 22560 ft | 365 kts | 251° |
| 2026-05-05 17:52 | 59.59285 | 28.85401 | 23039 ft | 366 kts | 251° |
| 2026-05-05 17:52 | 59.58438 | 28.80681 | 23493 ft | 367 kts | 251° |
| 2026-05-05 17:52 | 59.57582 | 28.75919 | 23912 ft | 369 kts | 251° |
| 2026-05-05 17:53 | 59.56728 | 28.71176 | 24309 ft | 372 kts | 251° |
| 2026-05-05 17:53 | 59.55858 | 28.66344 | 24693 ft | 374 kts | 251° |
| 2026-05-05 17:53 | 59.54991 | 28.61556 | 25052 ft | 376 kts | 251° |
| 2026-05-05 17:53 | 59.54118 | 28.56730 | 25424 ft | 378 kts | 251° |
| 2026-05-05 17:54 | 59.53233 | 28.51845 | 25771 ft | 381 kts | 251° |
| 2026-05-05 17:54 | 59.52343 | 28.46893 | 26080 ft | 384 kts | 251° |
| 2026-05-05 17:54 | 59.51462 | 28.41974 | 26394 ft | 386 kts | 251° |
| 2026-05-05 17:54 | 59.50572 | 28.37012 | 26721 ft | 387 kts | 251° |
| 2026-05-05 17:55 | 59.49680 | 28.32061 | 27043 ft | 388 kts | 250° |
| 2026-05-05 17:55 | 59.48775 | 28.27040 | 27472 ft | 387 kts | 250° |
| 2026-05-05 17:55 | 59.47877 | 28.22090 | 27892 ft | 385 kts | 250° |
| 2026-05-05 17:55 | 59.46977 | 28.17147 | 28281 ft | 384 kts | 250° |
| 2026-05-05 17:56 | 59.46083 | 28.12251 | 28645 ft | 383 kts | 250° |
| 2026-05-05 17:56 | 59.45180 | 28.07350 | 29002 ft | 382 kts | 250° |
| 2026-05-05 17:56 | 59.44243 | 28.02436 | 29348 ft | 381 kts | 250° |
| 2026-05-05 17:56 | 59.43308 | 27.97592 | 29688 ft | 380 kts | 250° |
| 2026-05-05 17:57 | 59.42376 | 27.92763 | 29993 ft | 380 kts | 249° |
| 2026-05-05 17:57 | 59.41429 | 27.87871 | 30277 ft | 379 kts | 249° |
| 2026-05-05 17:57 | 59.40503 | 27.83107 | 30556 ft | 379 kts | 249° |
| 2026-05-05 17:57 | 59.39551 | 27.78218 | 30842 ft | 378 kts | 249° |
| 2026-05-05 17:58 | 59.38605 | 27.73375 | 31084 ft | 378 kts | 249° |
| 2026-05-05 17:58 | 59.37672 | 27.68596 | 31293 ft | 378 kts | 249° |
| 2026-05-05 17:58 | 59.36656 | 27.63865 | 31491 ft | 379 kts | 245° |
| 2026-05-05 17:58 | 59.35390 | 27.59297 | 31690 ft | 380 kts | 240° |
| 2026-05-05 17:59 | 59.33937 | 27.55079 | 31903 ft | 381 kts | 236° |
| 2026-05-05 17:59 | 59.32257 | 27.51083 | 32098 ft | 384 kts | 231° |
| 2026-05-05 17:59 | 59.30386 | 27.47407 | 32270 ft | 387 kts | 227° |
| 2026-05-05 17:59 | 59.28312 | 27.44060 | 32453 ft | 390 kts | 221° |
| 2026-05-05 18:00 | 59.26048 | 27.41094 | 32641 ft | 394 kts | 217° |
| 2026-05-05 18:00 | 59.23651 | 27.38465 | 32830 ft | 395 kts | 215° |
| 2026-05-05 18:00 | 59.21231 | 27.35891 | 32994 ft | 396 kts | 214° |
| 2026-05-05 18:00 | 59.18853 | 27.33379 | 33180 ft | 397 kts | 214° |
| 2026-05-05 18:01 | 59.16415 | 27.30805 | 33383 ft | 397 kts | 214° |
| 2026-05-05 18:01 | 59.13991 | 27.28250 | 33586 ft | 396 kts | 214° |
| 2026-05-05 18:01 | 59.11579 | 27.25720 | 33783 ft | 396 kts | 213° |
| 2026-05-05 18:01 | 59.09185 | 27.23218 | 33942 ft | 397 kts | 213° |
| 2026-05-05 18:02 | 59.07059 | 27.21000 | 34068 ft | 398 kts | 213° |
| 2026-05-05 18:02 | 59.04661 | 27.18504 | 34176 ft | 399 kts | 213° |
| 2026-05-05 18:02 | 59.02242 | 27.15991 | 34294 ft | 401 kts | 213° |
| 2026-05-05 18:02 | 58.99778 | 27.13437 | 34433 ft | 401 kts | 213° |
| 2026-05-05 18:03 | 58.97332 | 27.10909 | 34583 ft | 402 kts | 213° |
| 2026-05-05 18:03 | 58.94852 | 27.08351 | 34709 ft | 402 kts | 213° |
| 2026-05-05 18:03 | 58.92444 | 27.05866 | 34818 ft | 402 kts | 213° |
| 2026-05-05 18:03 | 58.89930 | 27.03281 | 34929 ft | 403 kts | 213° |
| 2026-05-05 18:04 | 58.87490 | 27.00786 | 35027 ft | 403 kts | 213° |
| 2026-05-05 18:04 | 58.85006 | 26.98257 | 35129 ft | 404 kts | 213° |
| 2026-05-05 18:04 | 58.82544 | 26.95747 | 35227 ft | 404 kts | 213° |
| 2026-05-05 18:05 | 58.77551 | 26.90664 | 35387 ft | 406 kts | 213° |
| 2026-05-05 18:05 | 58.72607 | 26.85639 | 35562 ft | 406 kts | 213° |
| 2026-05-05 18:06 | 58.67625 | 26.80585 | 35693 ft | 408 kts | 213° |
| 2026-05-05 18:06 | 58.62631 | 26.75532 | 35786 ft | 408 kts | 213° |
| 2026-05-05 18:07 | 58.57616 | 26.70478 | 35805 ft | 409 kts | 213° |
| 2026-05-05 18:07 | 58.52588 | 26.65428 | 35800 ft | 410 kts | 213° |
| 2026-05-05 18:08 | 58.47561 | 26.60392 | 35804 ft | 409 kts | 213° |
| 2026-05-05 18:08 | 58.42526 | 26.55367 | 35808 ft | 409 kts | 213° |
| 2026-05-05 18:09 | 58.37503 | 26.50369 | 35809 ft | 409 kts | 213° |
| 2026-05-05 18:09 | 58.35011 | 26.47895 | 35579 ft | 409 kts | 213° |
| 2026-05-05 18:09 | 58.32492 | 26.45399 | 35678 ft | 408 kts | 213° |
| 2026-05-05 18:09 | 58.29978 | 26.42909 | 35904 ft | 409 kts | 213° |
| 2026-05-05 18:10 | 58.27447 | 26.40409 | 35856 ft | 409 kts | 213° |
| 2026-05-05 18:10 | 58.22402 | 26.35439 | 35826 ft | 409 kts | 213° |
| 2026-05-05 18:11 | 58.17402 | 26.30506 | 35809 ft | 409 kts | 212° |
| 2026-05-05 18:11 | 58.12434 | 26.25620 | 35804 ft | 408 kts | 212° |
| 2026-05-05 18:12 | 58.07393 | 26.20690 | 35798 ft | 409 kts | 212° |
| 2026-05-05 18:12 | 58.02330 | 26.15757 | 35807 ft | 409 kts | 212° |
| 2026-05-05 18:13 | 57.97428 | 26.11001 | 35802 ft | 410 kts | 212° |
| 2026-05-05 18:13 | 57.92750 | 26.06479 | 35823 ft | 410 kts | 212° |
| 2026-05-05 18:14 | 57.87727 | 26.01644 | 35812 ft | 409 kts | 212° |
| 2026-05-05 18:14 | 57.82660 | 25.96901 | 35824 ft | 409 kts | 211° |
| 2026-05-05 18:15 | 57.77577 | 25.92252 | 35819 ft | 409 kts | 211° |
| 2026-05-05 18:15 | 57.72476 | 25.87607 | 35829 ft | 409 kts | 211° |
| 2026-05-05 18:16 | 57.67377 | 25.82977 | 35840 ft | 408 kts | 211° |
| 2026-05-05 18:16 | 57.62299 | 25.78375 | 35689 ft | 407 kts | 211° |
| 2026-05-05 18:17 | 57.57196 | 25.73767 | 35773 ft | 408 kts | 211° |
| 2026-05-05 18:17 | 57.52088 | 25.69170 | 35805 ft | 409 kts | 211° |
| 2026-05-05 18:18 | 57.47004 | 25.64611 | 35829 ft | 409 kts | 211° |
| 2026-05-05 18:18 | 57.41912 | 25.60057 | 35844 ft | 409 kts | 211° |
| 2026-05-05 18:19 | 57.36813 | 25.55509 | 35848 ft | 408 kts | 211° |
| 2026-05-05 18:19 | 57.31678 | 25.50942 | 35849 ft | 408 kts | 211° |
| 2026-05-05 18:20 | 57.26571 | 25.46418 | 35864 ft | 408 kts | 211° |
| 2026-05-05 18:20 | 57.21443 | 25.41891 | 35854 ft | 407 kts | 211° |
| 2026-05-05 18:21 | 57.16372 | 25.37423 | 35847 ft | 407 kts | 211° |
| 2026-05-05 18:21 | 57.11294 | 25.32957 | 35865 ft | 407 kts | 210° |
| 2026-05-05 18:22 | 57.06202 | 25.28475 | 35859 ft | 407 kts | 210° |
| 2026-05-05 18:22 | 57.01099 | 25.24010 | 35859 ft | 407 kts | 210° |
| 2026-05-05 18:23 | 56.96028 | 25.19589 | 35862 ft | 406 kts | 210° |
| 2026-05-05 18:23 | 56.90927 | 25.15166 | 35872 ft | 408 kts | 210° |
| 2026-05-05 18:24 | 56.85805 | 25.10751 | 35881 ft | 406 kts | 210° |
| 2026-05-05 18:24 | 56.80705 | 25.06378 | 35884 ft | 407 kts | 210° |
| 2026-05-05 18:25 | 56.75599 | 25.01999 | 35871 ft | 406 kts | 209° |
| 2026-05-05 18:25 | 56.70511 | 24.97641 | 35871 ft | 404 kts | 210° |
| 2026-05-05 18:26 | 56.65437 | 24.93312 | 35877 ft | 404 kts | 210° |
| 2026-05-05 18:26 | 56.60385 | 24.89010 | 35881 ft | 404 kts | 210° |
| 2026-05-05 18:27 | 56.55289 | 24.84682 | 35868 ft | 404 kts | 210° |
| 2026-05-05 18:27 | 56.50219 | 24.80388 | 35878 ft | 405 kts | 209° |
| 2026-05-05 18:28 | 56.42560 | 24.73928 | 35887 ft | 404 kts | 209° |
| 2026-05-05 18:28 | 56.37499 | 24.69676 | 35874 ft | 403 kts | 209° |
| 2026-05-05 18:29 | 56.32460 | 24.65452 | 35875 ft | 403 kts | 210° |
| 2026-05-05 18:29 | 56.27387 | 24.61211 | 35880 ft | 404 kts | 210° |
| 2026-05-05 18:30 | 56.22287 | 24.56960 | 35860 ft | 403 kts | 209° |
| 2026-05-05 18:30 | 56.17228 | 24.52759 | 35862 ft | 404 kts | 209° |
| 2026-05-05 18:31 | 56.12127 | 24.48533 | 35866 ft | 404 kts | 209° |
| 2026-05-05 18:31 | 56.07069 | 24.44362 | 35849 ft | 403 kts | 209° |
| 2026-05-05 18:32 | 56.01967 | 24.40157 | 35853 ft | 404 kts | 209° |
| 2026-05-05 18:32 | 55.96870 | 24.35972 | 35855 ft | 403 kts | 209° |
| 2026-05-05 18:33 | 55.91801 | 24.31811 | 35857 ft | 404 kts | 209° |
| 2026-05-05 18:33 | 55.86688 | 24.27627 | 35854 ft | 405 kts | 208° |
| 2026-05-05 18:34 | 55.81576 | 24.23478 | 35856 ft | 406 kts | 208° |
| 2026-05-05 18:34 | 55.76474 | 24.19344 | 35852 ft | 405 kts | 208° |
| 2026-05-05 18:35 | 55.71376 | 24.15223 | 35856 ft | 406 kts | 208° |
| 2026-05-05 18:35 | 55.66250 | 24.11090 | 35854 ft | 407 kts | 208° |
| 2026-05-05 18:36 | 55.61113 | 24.06957 | 35859 ft | 408 kts | 208° |
| 2026-05-05 18:36 | 55.55964 | 24.02825 | 35854 ft | 407 kts | 208° |
| 2026-05-05 18:37 | 55.50832 | 23.98722 | 35857 ft | 408 kts | 208° |
| 2026-05-05 18:37 | 55.45664 | 23.94603 | 35852 ft | 407 kts | 208° |
| 2026-05-05 18:38 | 55.40539 | 23.90526 | 35855 ft | 408 kts | 208° |
| 2026-05-05 18:38 | 55.35371 | 23.86426 | 35859 ft | 409 kts | 208° |
| 2026-05-05 18:39 | 55.30178 | 23.82322 | 35857 ft | 409 kts | 208° |
| 2026-05-05 18:39 | 55.25002 | 23.78241 | 35862 ft | 410 kts | 208° |
| 2026-05-05 18:40 | 55.19822 | 23.74170 | 35861 ft | 409 kts | 208° |
| 2026-05-05 18:40 | 55.14675 | 23.70133 | 35869 ft | 409 kts | 208° |
| 2026-05-05 18:41 | 55.09476 | 23.66069 | 35864 ft | 410 kts | 208° |
| 2026-05-05 18:41 | 55.04295 | 23.62031 | 35870 ft | 409 kts | 208° |
| 2026-05-05 18:42 | 54.99116 | 23.58007 | 35865 ft | 410 kts | 208° |
| 2026-05-05 18:42 | 54.93911 | 23.53974 | 35864 ft | 411 kts | 208° |
| 2026-05-05 18:43 | 54.88678 | 23.49931 | 35867 ft | 413 kts | 208° |
| 2026-05-05 18:43 | 54.83456 | 23.45931 | 35868 ft | 414 kts | 208° |
| 2026-05-05 18:44 | 54.78198 | 23.41906 | 35866 ft | 414 kts | 208° |
| 2026-05-05 18:44 | 54.72939 | 23.37884 | 35864 ft | 414 kts | 208° |
| 2026-05-05 18:45 | 54.67682 | 23.33861 | 35862 ft | 415 kts | 207° |
| 2026-05-05 18:45 | 54.62407 | 23.29818 | 35860 ft | 415 kts | 207° |
| 2026-05-05 18:46 | 54.57146 | 23.25808 | 35855 ft | 416 kts | 207° |
| 2026-05-05 18:46 | 54.51882 | 23.21819 | 35853 ft | 417 kts | 207° |
| 2026-05-05 18:47 | 54.46560 | 23.17801 | 35855 ft | 418 kts | 207° |
| 2026-05-05 18:47 | 54.41261 | 23.13815 | 35853 ft | 419 kts | 207° |
| 2026-05-05 18:48 | 54.35931 | 23.09817 | 35849 ft | 419 kts | 207° |
| 2026-05-05 18:48 | 54.30601 | 23.05857 | 35842 ft | 420 kts | 205° |
| 2026-05-05 18:49 | 54.25175 | 23.02211 | 35843 ft | 422 kts | 205° |
| 2026-05-05 18:49 | 54.19732 | 22.98550 | 35853 ft | 422 kts | 205° |
| 2026-05-05 18:50 | 54.14252 | 22.94893 | 35855 ft | 422 kts | 205° |
| 2026-05-05 18:50 | 54.08869 | 22.91177 | 35847 ft | 421 kts | 207° |
| 2026-05-05 18:51 | 54.03672 | 22.86651 | 35856 ft | 419 kts | 213° |
| 2026-05-05 18:51 | 53.98672 | 22.81568 | 35855 ft | 419 kts | 213° |
| 2026-05-05 18:52 | 53.93698 | 22.76552 | 35848 ft | 421 kts | 213° |
| 2026-05-05 18:52 | 53.88664 | 22.71483 | 35855 ft | 422 kts | 213° |
| 2026-05-05 18:53 | 53.83611 | 22.66434 | 35849 ft | 422 kts | 214° |
| 2026-05-05 18:53 | 53.78572 | 22.61395 | 35852 ft | 424 kts | 214° |
| 2026-05-05 18:54 | 53.73533 | 22.56356 | 35845 ft | 424 kts | 214° |
| 2026-05-05 18:54 | 53.68475 | 22.51315 | 35846 ft | 424 kts | 214° |
| 2026-05-05 18:55 | 53.63409 | 22.46275 | 35842 ft | 424 kts | 214° |
| 2026-05-05 18:55 | 53.58345 | 22.41252 | 35832 ft | 424 kts | 214° |
| 2026-05-05 18:56 | 53.53253 | 22.36215 | 35836 ft | 426 kts | 214° |
| 2026-05-05 18:56 | 53.48172 | 22.31186 | 35841 ft | 426 kts | 213° |
| 2026-05-05 18:57 | 53.43075 | 22.26149 | 35838 ft | 427 kts | 213° |
| 2026-05-05 18:57 | 53.37928 | 22.21097 | 35836 ft | 427 kts | 213° |
| 2026-05-05 18:58 | 53.32832 | 22.16112 | 35833 ft | 428 kts | 213° |
| 2026-05-05 18:58 | 53.27693 | 22.11104 | 35829 ft | 429 kts | 213° |
| 2026-05-05 18:59 | 53.22551 | 22.06112 | 35830 ft | 429 kts | 213° |
| 2026-05-05 18:59 | 53.17411 | 22.01123 | 35826 ft | 430 kts | 213° |
| 2026-05-05 19:00 | 53.11967 | 21.96850 | 35821 ft | 436 kts | 202° |
| 2026-05-05 19:00 | 53.06211 | 21.93889 | 35813 ft | 437 kts | 201° |
| 2026-05-05 19:01 | 53.00349 | 21.90927 | 35812 ft | 437 kts | 201° |
| 2026-05-05 19:01 | 52.94573 | 21.87995 | 35815 ft | 437 kts | 201° |
| 2026-05-05 19:02 | 52.88819 | 21.85070 | 35812 ft | 438 kts | 201° |
| 2026-05-05 19:02 | 52.83008 | 21.82136 | 35806 ft | 440 kts | 201° |
| 2026-05-05 19:03 | 52.77174 | 21.79192 | 35802 ft | 441 kts | 201° |
| 2026-05-05 19:03 | 52.71281 | 21.76219 | 35799 ft | 442 kts | 201° |
| 2026-05-05 19:04 | 52.65437 | 21.73280 | 35802 ft | 442 kts | 201° |
| 2026-05-05 19:04 | 52.59549 | 21.70323 | 35791 ft | 442 kts | 201° |
| 2026-05-05 19:05 | 52.53676 | 21.67383 | 35792 ft | 442 kts | 201° |
| 2026-05-05 19:05 | 52.47925 | 21.64510 | 35785 ft | 442 kts | 201° |
| 2026-05-05 19:06 | 52.42048 | 21.61583 | 35775 ft | 443 kts | 200° |
| 2026-05-05 19:06 | 52.36196 | 21.58677 | 35786 ft | 443 kts | 201° |
| 2026-05-05 19:07 | 52.30286 | 21.55749 | 35781 ft | 443 kts | 200° |
| 2026-05-05 19:07 | 52.24416 | 21.52849 | 35782 ft | 443 kts | 200° |
| 2026-05-05 19:08 | 52.18526 | 21.49947 | 35787 ft | 443 kts | 200° |
| 2026-05-05 19:08 | 52.12637 | 21.47055 | 35788 ft | 443 kts | 200° |
| 2026-05-05 19:09 | 52.06714 | 21.44153 | 35786 ft | 443 kts | 200° |
| 2026-05-05 19:09 | 52.00795 | 21.41264 | 35786 ft | 443 kts | 200° |
| 2026-05-05 19:10 | 51.94921 | 21.38402 | 35788 ft | 443 kts | 200° |
| 2026-05-05 19:10 | 51.89021 | 21.35538 | 35774 ft | 443 kts | 200° |
| 2026-05-05 19:11 | 51.83107 | 21.32670 | 35771 ft | 443 kts | 199° |
| 2026-05-05 19:11 | 51.77237 | 21.29819 | 35762 ft | 443 kts | 199° |
| 2026-05-05 19:12 | 51.71311 | 21.26956 | 35772 ft | 443 kts | 199° |
| 2026-05-05 19:12 | 51.65423 | 21.24126 | 35783 ft | 442 kts | 199° |
| 2026-05-05 19:13 | 51.59527 | 21.21300 | 35776 ft | 443 kts | 199° |
| 2026-05-05 19:13 | 51.53637 | 21.18487 | 35784 ft | 443 kts | 199° |
| 2026-05-05 19:14 | 51.47755 | 21.15680 | 35786 ft | 443 kts | 199° |
| 2026-05-05 19:14 | 51.41818 | 21.12859 | 35804 ft | 443 kts | 199° |
| 2026-05-05 19:15 | 51.35942 | 21.10072 | 35792 ft | 443 kts | 199° |
| 2026-05-05 19:15 | 51.30039 | 21.07279 | 35803 ft | 443 kts | 198° |
| 2026-05-05 19:16 | 51.24128 | 21.04494 | 35808 ft | 443 kts | 198° |
| 2026-05-05 19:16 | 51.18219 | 21.01717 | 35814 ft | 443 kts | 198° |
| 2026-05-05 19:17 | 51.12299 | 20.98941 | 35815 ft | 443 kts | 198° |
| 2026-05-05 19:17 | 51.06393 | 20.96178 | 35822 ft | 443 kts | 198° |
| 2026-05-05 19:18 | 51.00514 | 20.93435 | 35821 ft | 443 kts | 198° |
| 2026-05-05 19:18 | 50.94675 | 20.90717 | 35838 ft | 443 kts | 198° |
| 2026-05-05 19:19 | 50.88852 | 20.88014 | 35824 ft | 444 kts | 198° |
| 2026-05-05 19:19 | 50.82916 | 20.85284 | 35815 ft | 444 kts | 198° |
| 2026-05-05 19:20 | 50.77002 | 20.82565 | 35814 ft | 444 kts | 198° |
| 2026-05-05 19:20 | 50.71046 | 20.79826 | 35809 ft | 444 kts | 198° |
| 2026-05-05 19:21 | 50.65126 | 20.77108 | 35806 ft | 443 kts | 198° |
| 2026-05-05 19:21 | 50.59200 | 20.74395 | 35812 ft | 443 kts | 198° |
| 2026-05-05 19:22 | 50.53303 | 20.71702 | 35806 ft | 443 kts | 198° |
| 2026-05-05 19:22 | 50.47392 | 20.69009 | 35806 ft | 444 kts | 198° |
| 2026-05-05 19:23 | 50.41463 | 20.66314 | 35806 ft | 444 kts | 198° |
| 2026-05-05 19:23 | 50.35548 | 20.63633 | 35808 ft | 444 kts | 198° |
| 2026-05-05 19:24 | 50.29617 | 20.60953 | 35807 ft | 443 kts | 198° |
| 2026-05-05 19:24 | 50.23726 | 20.58296 | 35809 ft | 444 kts | 198° |
| 2026-05-05 19:25 | 50.17825 | 20.55642 | 35808 ft | 444 kts | 198° |
| 2026-05-05 19:25 | 50.11884 | 20.52978 | 35805 ft | 444 kts | 198° |
| 2026-05-05 19:26 | 50.05981 | 20.50337 | 35811 ft | 444 kts | 198° |
| 2026-05-05 19:26 | 50.00030 | 20.47682 | 35817 ft | 444 kts | 198° |
| 2026-05-05 19:27 | 49.94323 | 20.45144 | 35819 ft | 444 kts | 198° |
| 2026-05-05 19:27 | 49.88354 | 20.42494 | 35831 ft | 444 kts | 198° |
| 2026-05-05 19:28 | 49.82435 | 20.39887 | 35841 ft | 445 kts | 198° |
| 2026-05-05 19:28 | 49.76504 | 20.37274 | 35853 ft | 445 kts | 198° |
| 2026-05-05 19:29 | 49.70579 | 20.34665 | 35863 ft | 445 kts | 197° |
| 2026-05-05 19:29 | 49.64648 | 20.32032 | 35878 ft | 446 kts | 197° |
| 2026-05-05 19:30 | 49.58685 | 20.29404 | 35881 ft | 445 kts | 197° |